LTAT Airport Information

Runway Information
Runway 03 Length 10990 ft width 148 ft
Elevation 2828 ft Threshold 0 ft Heading 31
Runway 21 Length 10990 ft Width 148 ft
Elevation 2757 ft Threshold 0 ft Heading 211
Airport Frequencies
Type APP Name APP Frequency 122.1 MHZ
Type ATIS Name ATIS Frequency 128.35 MHZ
Type GND Name GND Frequency 121.95 MHZ
Type TWR Name TWR Frequency 122.1 MHZ
Airport Navaids
Type NDB Name Erhac Frequency 421 KHZ
Type VOR Name Malatya Frequency 112000 KHZ
Type TACAN Name Erhac Frequency 113500 KHZ
Airport Weather Information & NOTAM
ADDS - METARS form results

(2216 UTC 19 September 2018)
Data provider http://aviationweather.gov/metar/data/
 
METAR text: LTAT 192150Z 11004KT 080V150 CAVOK 23/04 Q1015 NOSIG
Conditions at: LTAT (MALATYA/ERHAC (A, TR) observed 2150 UTC 19 September 2018
Temperature: 23.0°C (73°F)
Dewpoint: 4.0°C (39°F) [RH = 29%]
Pressure (altimeter): 29.97 inches Hg (1015.0 mb)
Winds: from the ESE (110 degrees) at 5 MPH (4 knots; 2.1 m/s)
Visibility: 6 or more miles (10+ km)
Ceiling: ceiling and visibility are OK
Clouds: unknown
Weather: no significant weather observed at this time

METAR text: LTAT 192120Z VRB04KT CAVOK 24/04 Q1015 NOSIG
Conditions at: LTAT (MALATYA/ERHAC (A, TR) observed 2120 UTC 19 September 2018
Temperature: 24.0°C (75°F)
Dewpoint: 4.0°C (39°F) [RH = 27%]
Pressure (altimeter): 29.97 inches Hg (1015.0 mb)
Winds: variable direction winds at 5 MPH (4 knots; 2.1 m/s)
Visibility: 6 or more miles (10+ km)
Ceiling: ceiling and visibility are OK
Clouds: unknown
Weather: no significant weather observed at this time

Forecast for: LTAT (MALATYA/ERHAC (A, TR)
Text: TAF LTAT 191640Z 1918/2018 29008KT CAVOK
Forecast period: 1800 UTC 19 September 2018 to 0600 UTC 20 September 2018
Forecast type: FROM: standard forecast or significant change
Winds: from the WNW (290 degrees) at 9 MPH (8 knots; 4.1 m/s)
Visibility: 6 or more miles 10+ km)
Ceiling: unknown
Clouds: missing
Weather: NSW  (no significant weather)
Text: BECMG 2006/2008 FEW040
Forecast period: 0600 to 1800 UTC 20 September 2018
Forecast type: BECOMING: Conditions expected to become as follows by 0800 UTC 20 September 2018
Winds: from the WNW (290 degrees) at 9 MPH (8 knots; 4.1 m/s)
Visibility: 6 or more miles 10+ km)
Ceiling: at least 12,000 feet AGL
Clouds: few clouds at 4000 feet AGL
Weather: NSW  (no significant weather)